Time;durP1;ratioP1;P1;durP2;ratioP2;P2;SDS_P1;SDS_P2;PMS_P1;PMS_P2;Temp;Humidity;BMP_temperature;BMP_pressure;BME280_temperature;BME280_humidity;BME280_pressure;Samples;Min_cycle;Max_cycle;Signal;HPM_P1;HPM_P2
2022/03/04 00:00:15;;;;;;;47.17;24.70;;;5.10;94.60;;;;;;5095299;28;20598;-67
2022/03/04 00:02:41;;;;;;;38.67;23.33;;;5.10;94.70;;;;;;5095042;28;20183;-67
2022/03/04 00:05:07;;;;;;;37.77;23.90;;;5.00;95.00;;;;;;5095178;28;20199;-66
2022/03/04 00:07:32;;;;;;;37.57;22.60;;;5.00;95.20;;;;;;5094816;28;20277;-65
2022/03/04 00:09:58;;;;;;;37.40;23.40;;;4.90;95.40;;;;;;5095088;28;20655;-67
2022/03/04 00:12:23;;;;;;;35.33;24.60;;;4.90;95.70;;;;;;5094968;28;20175;-66
2022/03/04 00:14:49;;;;;;;39.03;24.20;;;4.90;96.10;;;;;;5094806;28;20212;-66
2022/03/04 00:17:14;;;;;;;40.23;24.40;;;4.90;96.30;;;;;;5094853;28;20642;-66
2022/03/04 00:19:41;;;;;;;36.13;23.13;;;4.80;96.50;;;;;;5094880;28;20216;-66
2022/03/04 00:22:06;;;;;;;38.63;23.90;;;4.80;96.50;;;;;;5094888;28;20178;-66
2022/03/04 00:24:32;;;;;;;38.53;23.30;;;4.70;96.60;;;;;;5094794;28;20169;-66
2022/03/04 00:26:57;;;;;;;33.23;22.53;;;4.70;96.80;;;;;;5094765;28;20202;-66
2022/03/04 00:29:23;;;;;;;45.07;27.20;;;4.70;96.90;;;;;;5094876;28;20172;-65
2022/03/04 00:31:49;;;;;;;37.10;22.97;;;4.70;96.40;;;;;;5094383;28;20179;-66
2022/03/04 00:34:14;;;;;;;37.33;22.03;;;4.70;96.40;;;;;;5076284;28;20221;-66
2022/03/04 00:36:41;;;;;;;33.13;21.47;;;4.90;96.20;;;;;;5094613;28;20183;-66
2022/03/04 00:39:09;;;;;;;34.10;21.40;;;4.90;95.70;;;;;;5094457;28;20264;-66
2022/03/04 00:41:36;;;;;;;44.37;26.33;;;5.00;95.20;;;;;;5094513;28;20191;-65
2022/03/04 00:44:01;;;;;;;40.17;23.50;;;4.90;95.20;;;;;;5094376;28;20635;-66
2022/03/04 00:46:27;;;;;;;38.43;24.93;;;5.00;95.30;;;;;;5093967;28;20187;-65
2022/03/04 00:48:53;;;;;;;40.30;22.97;;;5.00;95.20;;;;;;5094417;28;20176;-65
2022/03/04 00:51:19;;;;;;;35.03;20.60;;;5.00;95.30;;;;;;5094371;28;20172;-66
2022/03/04 00:53:44;;;;;;;36.93;22.27;;;5.00;95.00;;;;;;5094253;28;20204;-66
2022/03/04 00:56:11;;;;;;;32.63;21.63;;;5.00;95.00;;;;;;5094235;28;20176;-65
2022/03/04 00:58:38;;;;;;;46.30;27.20;;;5.10;94.40;;;;;;5094146;28;20258;-65
2022/03/04 01:01:05;;;;;;;36.60;22.60;;;5.10;94.90;;;;;;5093836;28;20179;-65
2022/03/04 01:03:31;;;;;;;34.73;20.07;;;5.10;94.40;;;;;;5076007;28;20171;-65
2022/03/04 01:05:58;;;;;;;36.87;20.67;;;5.10;94.30;;;;;;5093926;28;20226;-65
2022/03/04 01:08:24;;;;;;;36.30;22.23;;;5.10;94.20;;;;;;5074975;28;20710;-67
2022/03/04 01:10:50;;;;;;;38.67;21.57;;;5.10;94.30;;;;;;5093942;28;20310;-67
2022/03/04 01:13:15;;;;;;;30.83;21.33;;;5.00;94.60;;;;;;5094009;28;20168;-66
2022/03/04 01:15:41;;;;;;;28.70;18.77;;;5.00;94.60;;;;;;5093608;28;20184;-66
2022/03/04 01:18:07;;;;;;;34.57;20.80;;;5.00;94.80;;;;;;5094142;28;20180;-66
2022/03/04 01:20:33;;;;;;;27.73;19.13;;;5.00;95.00;;;;;;5093962;28;20504;-66
2022/03/04 01:22:59;;;;;;;35.93;20.50;;;4.90;95.00;;;;;;5093685;28;20168;-66
2022/03/04 01:25:26;;;;;;;34.17;19.93;;;4.90;95.60;;;;;;5093700;28;20245;-66
2022/03/04 01:27:51;;;;;;;30.83;20.33;;;4.90;95.70;;;;;;5093758;28;20182;-66
2022/03/04 01:30:18;;;;;;;40.53;20.57;;;4.80;96.60;;;;;;5093470;28;20251;-65
2022/03/04 01:32:45;;;;;;;27.70;19.63;;;4.70;97.40;;;;;;5075585;28;20635;-66
2022/03/04 01:35:11;;;;;;;29.97;19.90;;;4.60;98.10;;;;;;5093543;28;20212;-66
2022/03/04 01:37:37;;;;;;;30.87;20.13;;;4.60;98.20;;;;;;5093419;28;20203;-65
2022/03/04 01:40:04;;;;;;;35.23;20.57;;;4.50;98.60;;;;;;5093749;28;20191;-65
2022/03/04 01:42:30;;;;;;;31.10;20.80;;;4.50;99.10;;;;;;5093546;28;20175;-65
2022/03/04 01:44:56;;;;;;;36.47;21.47;;;4.40;99.20;;;;;;5093119;28;20180;-66
2022/03/04 01:47:21;;;;;;;30.90;19.83;;;4.30;99.40;;;;;;5075341;28;20176;-66
2022/03/04 01:49:47;;;;;;;40.57;20.60;;;4.30;99.30;;;;;;5093481;28;20167;-65
2022/03/04 01:52:13;;;;;;;45.37;22.83;;;4.30;99.40;;;;;;5093156;28;20491;-65
2022/03/04 01:54:39;;;;;;;34.37;20.90;;;4.30;99.70;;;;;;5093225;28;20211;-65
2022/03/04 01:57:05;;;;;;;31.13;20.20;;;4.30;99.90;;;;;;5093456;28;20175;-65
2022/03/04 01:59:31;;;;;;;32.17;20.47;;;4.20;99.90;;;;;;5093079;28;20175;-66
2022/03/04 02:01:57;;;;;;;26.63;17.87;;;4.20;99.90;;;;;;5093404;28;20535;-66
2022/03/04 02:04:24;;;;;;;30.50;18.83;;;4.20;99.70;;;;;;5074974;28;20659;-66
2022/03/04 02:06:50;;;;;;;29.00;18.73;;;4.20;99.80;;;;;;5092934;28;20215;-66
2022/03/04 02:09:16;;;;;;;27.87;17.63;;;4.30;99.30;;;;;;5093294;28;20190;-66
2022/03/04 02:11:44;;;;;;;28.37;17.80;;;4.40;99.10;;;;;;5093259;28;20168;-65
2022/03/04 02:14:11;;;;;;;32.30;19.10;;;4.50;98.50;;;;;;5092794;28;20222;-65
2022/03/04 02:16:48;;;;;;;28.80;17.53;;;4.60;98.30;;;;;;5093127;28;20213;-66
2022/03/04 02:19:15;;;;;;;27.33;18.47;;;4.80;97.50;;;;;;5095158;28;20167;-66
2022/03/04 02:21:53;;;;;;;24.67;17.47;;;4.80;97.50;;;;;;5097185;28;20569;-65
2022/03/04 02:24:19;;;;;;;31.97;19.13;;;4.80;97.50;;;;;;5097084;28;20160;-65
2022/03/04 02:26:45;;;;;;;27.07;18.23;;;4.70;97.70;;;;;;5079116;28;20259;-65
2022/03/04 02:29:11;;;;;;;29.10;17.87;;;4.60;98.40;;;;;;5096878;28;20217;-66
2022/03/04 02:31:39;;;;;;;26.87;17.97;;;4.60;98.30;;;;;;5096977;28;20218;-66
2022/03/04 02:34:05;;;;;;;29.50;18.77;;;4.50;98.60;;;;;;5096739;28;20233;-66
2022/03/04 02:36:31;;;;;;;23.80;17.80;;;4.50;99.10;;;;;;5096883;28;20255;-65
2022/03/04 02:38:56;;;;;;;27.80;17.67;;;4.50;98.70;;;;;;5096982;28;20202;-65
2022/03/04 02:41:22;;;;;;;26.03;17.70;;;4.40;98.30;;;;;;5096786;28;20172;-66
2022/03/04 02:43:47;;;;;;;27.40;17.17;;;4.50;98.10;;;;;;5096460;28;20186;-65
2022/03/04 02:46:13;;;;;;;26.10;17.17;;;4.60;97.90;;;;;;5097128;28;20195;-66
2022/03/04 02:48:39;;;;;;;30.13;17.10;;;4.70;97.40;;;;;;5096809;28;20324;-65
2022/03/04 02:51:05;;;;;;;24.87;17.00;;;4.70;97.20;;;;;;5096777;28;20186;-66
2022/03/04 02:53:31;;;;;;;27.47;17.87;;;4.80;97.00;;;;;;5096427;28;20192;-66
2022/03/04 02:55:57;;;;;;;26.17;17.00;;;4.80;96.70;;;;;;5096687;28;20174;-66
2022/03/04 02:58:22;;;;;;;25.30;16.17;;;4.80;96.50;;;;;;5096403;28;20171;-64
2022/03/04 03:00:48;;;;;;;24.30;16.73;;;4.80;96.50;;;;;;5096471;28;20657;-66
2022/03/04 03:03:14;;;;;;;30.83;16.30;;;4.80;96.40;;;;;;5096475;28;20528;-66
2022/03/04 03:05:40;;;;;;;25.90;17.53;;;4.70;96.60;;;;;;5096254;28;20202;-66
2022/03/04 03:08:05;;;;;;;24.70;17.00;;;4.70;96.10;;;;;;5078330;28;20210;-67
2022/03/04 03:10:34;;;;;;;24.53;16.53;;;4.80;96.00;;;;;;5096387;28;20213;-65
2022/03/04 03:13:00;;;;;;;28.57;17.77;;;4.80;96.10;;;;;;5096110;28;20168;-65
2022/03/04 03:15:27;;;;;;;28.87;17.77;;;4.70;96.40;;;;;;5096247;28;20246;-65
2022/03/04 03:17:53;;;;;;;26.93;17.23;;;4.70;96.90;;;;;;5096001;28;20160;-65
2022/03/04 03:20:18;;;;;;;26.50;17.40;;;4.60;96.70;;;;;;5096063;28;20175;-66
2022/03/04 03:22:44;;;;;;;27.53;17.17;;;4.50;97.00;;;;;;5096105;28;20175;-66
2022/03/04 03:25:10;;;;;;;27.63;18.50;;;4.50;97.10;;;;;;5096164;28;20258;-66
2022/03/04 03:27:36;;;;;;;29.70;17.77;;;4.50;97.90;;;;;;5095800;28;20176;-66
2022/03/04 03:30:06;;;;;;;24.03;16.57;;;4.40;98.80;;;;;;5095076;28;20278;-64
2022/03/04 03:32:32;;;;;;;29.43;18.00;;;4.40;98.30;;;;;;5095980;28;20172;-66
2022/03/04 03:34:58;;;;;;;31.63;19.43;;;4.30;99.00;;;;;;5095613;28;20210;-66
2022/03/04 03:37:24;;;;;;;27.57;18.30;;;4.20;99.90;;;;;;5095903;28;20175;-66
2022/03/04 03:39:50;;;;;;;30.00;18.97;;;4.10;99.90;;;;;;5095707;28;20172;-66
2022/03/04 03:42:15;;;;;;;25.73;18.37;;;4.00;99.90;;;;;;5095855;28;20255;-65
2022/03/04 03:44:41;;;;;;;31.27;17.63;;;3.90;99.90;;;;;;5095471;28;20175;-66
2022/03/04 03:47:09;;;;;;;35.23;18.27;;;3.80;99.90;;;;;;5095525;28;20167;-65
2022/03/04 03:49:35;;;;;;;27.80;18.47;;;3.70;99.90;;;;;;5095647;28;20195;-65
2022/03/04 03:52:01;;;;;;;34.13;18.67;;;3.70;99.90;;;;;;5095655;28;20260;-66
2022/03/04 03:54:26;;;;;;;33.13;19.30;;;3.60;99.90;;;;;;5094726;28;20203;-65
2022/03/04 03:56:52;;;;;;;31.10;19.30;;;3.60;99.90;;;;;;5095647;28;20183;-66
2022/03/04 03:59:18;;;;;;;27.70;18.70;;;3.50;99.90;;;;;;5095368;28;20691;-66
2022/03/04 04:01:44;;;;;;;32.20;19.33;;;3.40;99.90;;;;;;5095529;28;20690;-65
2022/03/04 04:04:12;;;;;;;30.67;19.03;;;3.40;99.90;;;;;;5095131;28;20167;-65
2022/03/04 04:06:41;;;;;;;27.27;17.80;;;3.40;99.90;;;;;;5094972;28;20752;-66
2022/03/04 04:09:08;;;;;;;30.70;17.63;;;3.40;99.90;;;;;;5094735;28;20179;-65
2022/03/04 04:11:35;;;;;;;29.93;18.83;;;3.30;99.90;;;;;;5095198;28;20225;-65
2022/03/04 04:14:03;;;;;;;30.73;17.97;;;3.30;99.90;;;;;;5076419;28;20203;-65
2022/03/04 04:16:28;;;;;;;27.37;17.47;;;3.20;99.90;;;;;;5094867;28;20179;-66
2022/03/04 04:18:56;;;;;;;35.33;18.40;;;3.10;99.90;;;;;;5094683;28;20288;-66
2022/03/04 04:21:22;;;;;;;35.30;19.13;;;3.10;99.90;;;;;;5094369;28;20572;-66
2022/03/04 04:23:48;;;;;;;32.67;18.27;;;3.10;99.90;;;;;;5094286;28;20166;-66
2022/03/04 04:26:13;;;;;;;28.60;17.83;;;3.10;99.90;;;;;;5094878;28;20535;-66
2022/03/04 04:28:39;;;;;;;29.70;17.93;;;3.10;99.90;;;;;;5094546;28;20207;-65
2022/03/04 04:31:05;;;;;;;32.50;17.83;;;3.00;99.90;;;;;;5094483;28;20204;-66
2022/03/04 04:33:31;;;;;;;30.73;18.33;;;3.00;99.90;;;;;;5094382;28;20168;-66
2022/03/04 04:35:57;;;;;;;29.30;18.20;;;3.00;99.90;;;;;;5094529;28;20183;-65
2022/03/04 04:38:22;;;;;;;33.13;20.10;;;3.00;99.90;;;;;;5094254;28;20198;-65
2022/03/04 04:40:48;;;;;;;31.27;17.43;;;3.00;99.90;;;;;;5094244;28;20507;-66
2022/03/04 04:43:14;;;;;;;32.03;17.77;;;2.90;99.90;;;;;;5094398;28;20239;-66
2022/03/04 04:45:40;;;;;;;34.37;18.07;;;3.00;99.90;;;;;;5094141;28;20176;-66
2022/03/04 04:48:05;;;;;;;32.70;18.70;;;2.90;99.90;;;;;;5094191;28;20537;-65
2022/03/04 04:50:31;;;;;;;33.30;19.67;;;3.10;99.90;;;;;;5094135;28;20194;-65
2022/03/04 04:52:56;;;;;;;31.47;18.77;;;3.00;99.90;;;;;;5093993;28;20241;-66
2022/03/04 04:55:22;;;;;;;30.47;17.93;;;3.00;99.90;;;;;;5075760;28;20214;-65
2022/03/04 04:57:48;;;;;;;32.77;18.93;;;3.00;99.90;;;;;;5093414;28;20686;-65
2022/03/04 05:00:14;;;;;;;30.63;19.00;;;3.00;99.90;;;;;;5093740;28;20224;-66
2022/03/04 05:02:39;;;;;;;31.83;18.40;;;2.90;99.90;;;;;;5094061;28;20179;-66
2022/03/04 05:05:05;;;;;;;30.27;18.73;;;2.90;99.90;;;;;;5075444;28;20649;-66
2022/03/04 05:07:31;;;;;;;33.33;18.70;;;2.90;99.90;;;;;;5093163;28;20227;-66
2022/03/04 05:09:57;;;;;;;30.73;18.53;;;2.80;99.90;;;;;;5093701;28;20175;-66
2022/03/04 05:12:22;;;;;;;29.27;18.37;;;2.80;99.90;;;;;;5093511;28;20278;-66
2022/03/04 05:14:48;;;;;;;33.10;18.93;;;2.80;99.90;;;;;;5093168;28;20214;-66
2022/03/04 05:17:13;;;;;;;28.03;18.20;;;2.90;99.90;;;;;;5075664;28;20183;-65
2022/03/04 05:19:39;;;;;;;29.40;16.87;;;2.80;99.90;;;;;;5093417;28;20704;-65
2022/03/04 05:22:05;;;;;;;30.57;18.40;;;2.90;99.90;;;;;;5092996;28;20231;-66
2022/03/04 05:24:30;;;;;;;37.97;19.63;;;2.90;99.90;;;;;;5092884;28;20179;-65
2022/03/04 05:26:56;;;;;;;27.80;17.43;;;2.90;99.90;;;;;;5093218;28;20171;-66
2022/03/04 05:29:21;;;;;;;27.40;17.33;;;2.90;99.90;;;;;;5093531;28;20197;-65
2022/03/04 05:31:47;;;;;;;25.33;16.63;;;2.90;99.90;;;;;;5093571;28;20176;-66
2022/03/04 05:34:13;;;;;;;33.50;17.63;;;2.90;99.90;;;;;;5093057;28;20208;-65
2022/03/04 05:36:39;;;;;;;29.57;18.20;;;2.90;99.90;;;;;;5092875;28;20210;-66
2022/03/04 05:39:05;;;;;;;31.00;17.83;;;2.90;99.90;;;;;;5093188;28;20262;-66
2022/03/04 05:41:31;;;;;;;30.10;17.53;;;2.80;99.90;;;;;;5092971;28;20182;-66
2022/03/04 05:43:57;;;;;;;31.23;17.37;;;2.80;99.90;;;;;;5093303;28;20171;-65
2022/03/04 05:46:23;;;;;;;32.20;17.13;;;2.70;99.90;;;;;;5074478;28;20220;-65
2022/03/04 05:48:48;;;;;;;32.60;17.90;;;2.70;99.90;;;;;;5092659;28;20558;-66
2022/03/04 05:51:14;;;;;;;32.53;17.53;;;2.70;99.90;;;;;;5092459;28;20179;-65
2022/03/04 05:53:40;;;;;;;30.47;17.57;;;2.60;99.90;;;;;;5092336;28;20292;-65
2022/03/04 05:56:07;;;;;;;33.40;18.33;;;2.60;99.90;;;;;;5092691;28;20262;-66
2022/03/04 05:58:34;;;;;;;31.10;17.30;;;2.60;99.90;;;;;;5092618;28;20264;-65
2022/03/04 06:01:00;;;;;;;33.00;18.90;;;2.50;99.90;;;;;;5093007;28;20178;-66
2022/03/04 06:03:26;;;;;;;35.53;17.77;;;2.60;99.90;;;;;;5092122;28;20242;-65
2022/03/04 06:05:52;;;;;;;30.83;18.00;;;2.50;99.90;;;;;;5091359;28;20733;-66
2022/03/04 06:08:18;;;;;;;30.27;18.03;;;2.50;99.90;;;;;;5092197;28;20661;-65
2022/03/04 06:10:43;;;;;;;31.40;17.07;;;2.60;99.90;;;;;;5092260;28;20703;-66
2022/03/04 06:13:09;;;;;;;31.73;17.53;;;2.60;99.90;;;;;;5092410;28;20175;-65
2022/03/04 06:15:35;;;;;;;27.67;17.30;;;2.60;99.90;;;;;;5091795;28;20217;-66
2022/03/04 06:18:00;;;;;;;31.13;16.97;;;2.60;99.90;;;;;;5092517;28;20174;-66
2022/03/04 06:20:26;;;;;;;25.50;16.83;;;2.60;99.90;;;;;;5092315;28;20630;-65
2022/03/04 06:22:51;;;;;;;28.03;17.03;;;2.50;99.90;;;;;;5092381;28;20258;-66
2022/03/04 06:25:17;;;;;;;30.37;17.33;;;2.60;99.90;;;;;;5091968;28;20195;-66
2022/03/04 06:28:00;;;;;;;34.13;18.67;;;2.50;99.90;;;;;;5091468;28;20179;-66
2022/03/04 06:30:32;;;;;;;32.13;18.57;;;2.60;99.90;;;;;;5073884;28;20175;-66
2022/03/04 06:33:42;;;;;;;35.23;18.60;;;2.60;99.90;;;;;;5092046;28;20171;-66
2022/03/04 06:35:47;;;;;;;31.70;18.47;;;2.70;99.90;;;;;;5078018;28;20230;-65
2022/03/04 06:38:13;;;;;;;29.70;18.03;;;2.70;99.90;;;;;;5092354;28;20213;-66
2022/03/04 06:40:40;;;;;;;36.03;18.70;;;2.70;99.90;;;;;;5091124;28;20267;-66
2022/03/04 06:43:06;;;;;;;40.03;18.97;;;2.70;99.90;;;;;;5091786;28;20183;-66
2022/03/04 06:45:32;;;;;;;32.63;17.90;;;2.80;99.90;;;;;;5074051;28;20187;-66
2022/03/04 06:47:58;;;;;;;34.53;18.43;;;2.80;99.90;;;;;;5090727;28;20569;-66
2022/03/04 06:50:24;;;;;;;43.03;19.53;;;2.90;99.90;;;;;;5090089;28;20277;-66
2022/03/04 06:52:53;;;;;;;36.77;19.17;;;3.00;99.90;;;;;;5089835;28;20255;-65
2022/03/04 06:55:19;;;;;;;37.43;18.60;;;3.10;99.90;;;;;;5090890;28;20217;-67
2022/03/04 06:57:46;;;;;;;39.67;18.47;;;3.10;99.90;;;;;;5091313;28;20262;-66
2022/03/04 07:00:13;;;;;;;31.37;18.33;;;3.30;99.90;;;;;;5071168;28;20283;-65
2022/03/04 07:02:39;;;;;;;33.07;18.80;;;3.40;99.90;;;;;;5088801;28;20190;-65
2022/03/04 07:05:06;;;;;;;29.37;18.23;;;3.50;99.90;;;;;;5088750;28;20236;-66
2022/03/04 07:07:32;;;;;;;32.67;18.00;;;3.70;99.90;;;;;;5092334;28;20284;-67
2022/03/04 07:09:58;;;;;;;35.83;18.10;;;4.00;99.90;;;;;;5092082;28;20256;-65
2022/03/04 07:12:23;;;;;;;35.80;18.70;;;4.20;99.90;;;;;;5092981;28;20175;-65
2022/03/04 07:14:50;;;;;;;38.10;17.93;;;4.50;99.90;;;;;;5093727;28;20614;-66
2022/03/04 07:17:16;;;;;;;32.30;17.37;;;5.10;99.80;;;;;;5094111;28;20235;-68
2022/03/04 07:19:42;;;;;;;25.97;17.20;;;6.00;98.10;;;;;;5093106;28;20273;-66
2022/03/04 07:22:08;;;;;;;32.40;18.13;;;6.90;94.70;;;;;;5093191;28;20175;-66
2022/03/04 07:24:33;;;;;;;24.53;17.57;;;8.00;92.60;;;;;;5094596;28;20178;-65
2022/03/04 07:26:59;;;;;;;28.70;18.03;;;8.70;87.70;;;;;;5094157;28;20495;-66
2022/03/04 07:29:25;;;;;;;27.10;17.70;;;9.40;82.90;;;;;;5094733;28;20168;-66
2022/03/04 07:31:53;;;;;;;25.27;17.33;;;10.40;77.60;;;;;;5093923;28;20233;-67
2022/03/04 07:34:20;;;;;;;30.17;18.27;;;10.80;71.90;;;;;;5094330;28;20212;-67
2022/03/04 07:36:46;;;;;;;26.80;18.07;;;11.50;99.90;;;;;;5094000;28;20217;-66
2022/03/04 07:39:12;;;;;;;26.97;17.07;;;12.40;99.90;;;;;;5092824;28;20179;-67
2022/03/04 07:41:38;;;;;;;26.13;17.30;;;12.80;99.90;;;;;;5094223;28;20175;-66
2022/03/04 07:44:04;;;;;;;23.87;17.83;;;12.80;99.90;;;;;;5094243;28;20197;-67
2022/03/04 07:46:30;;;;;;;24.07;18.43;;;13.00;99.90;;;;;;5092167;28;20183;-66
2022/03/04 07:48:55;;;;;;;24.50;18.23;;;13.20;99.90;;;;;;5093595;28;20172;-65
2022/03/04 07:51:21;;;;;;;26.57;18.10;;;13.90;99.90;;;;;;5094405;28;20637;-66
2022/03/04 07:53:47;;;;;;;24.57;17.80;;;14.20;99.90;;;;;;5092534;28;20215;-65
2022/03/04 07:56:12;;;;;;;29.53;18.57;;;14.70;99.90;;;;;;5093385;28;20191;-66
2022/03/04 07:58:38;;;;;;;26.77;18.40;;;15.10;99.90;;;;;;5075364;28;20171;-66
2022/03/04 08:01:04;;;;;;;24.37;18.00;;;15.80;99.90;;;;;;5093855;28;20175;-66
2022/03/04 08:03:29;;;;;;;21.77;17.77;;;16.60;99.90;;;;;;5093902;28;20176;-66
2022/03/04 08:05:55;;;;;;;25.70;18.13;;;16.70;99.90;;;;;;5093535;28;20629;-66
2022/03/04 08:08:21;;;;;;;25.15;18.55;;;16.90;99.90;;;;;;5092773;28;20635;-67
2022/03/04 08:10:46;;;;;;;25.08;17.40;;;16.80;99.90;;;;;;5093985;28;20551;-65
2022/03/04 08:13:12;;;;;;;24.42;18.00;;;16.90;99.90;;;;;;5093920;28;20615;-65
2022/03/04 08:15:38;;;;;;;23.48;18.50;;;17.50;99.90;;;;;;5093081;28;20658;-65
2022/03/04 08:18:03;;;;;;;23.55;18.95;;;17.90;99.90;;;;;;5093012;28;20218;-66
2022/03/04 08:20:31;;;;;;;28.83;17.58;;;18.70;99.90;;;;;;5092737;28;20521;-66
2022/03/04 08:22:57;;;;;;;25.98;18.30;;;18.60;99.90;;;;;;5093814;28;20218;-67
2022/03/04 08:25:23;;;;;;;23.02;16.90;;;18.60;99.90;;;;;;5093073;28;20180;-67
2022/03/04 08:27:50;;;;;;;25.48;17.42;;;18.10;99.90;;;;;;5093505;28;20201;-67
2022/03/04 08:30:16;;;;;;;22.42;16.90;;;17.80;99.90;;;;;;5093260;28;20164;-66
2022/03/04 08:32:41;;;;;;;21.30;16.92;;;17.50;99.90;;;;;;5094270;28;20168;-66
2022/03/04 08:35:08;;;;;;;19.77;16.65;;;18.10;99.90;;;;;;5093994;28;20735;-67
2022/03/04 08:37:34;;;;;;;25.55;17.23;;;17.00;99.90;;;;;;5093186;28;20526;-66
2022/03/04 08:40:00;;;;;;;22.50;16.65;;;16.80;99.90;;;;;;5092954;28;20175;-66
2022/03/04 08:42:26;;;;;;;19.95;16.15;;;16.50;99.90;;;;;;5094052;28;20172;-65
2022/03/04 08:44:53;;;;;;;18.57;16.13;;;15.30;99.90;;;;;;5092483;28;20186;-65
2022/03/04 08:47:19;;;;;;;19.43;16.10;;;13.40;99.90;;;;;;5091866;28;20188;-65
2022/03/04 08:49:45;;;;;;;22.77;16.00;;;13.00;99.90;;;;;;5092467;28;20653;-65
2022/03/04 08:52:10;;;;;;;21.40;15.93;;;12.90;99.90;;;;;;5092238;28;20347;-65
2022/03/04 08:54:37;;;;;;;19.73;16.63;;;13.20;99.90;;;;;;5092883;28;20192;-64
2022/03/04 08:57:03;;;;;;;20.07;15.73;;;14.20;99.90;;;;;;5093251;28;20172;-66
2022/03/04 08:59:28;;;;;;;18.80;15.70;;;14.90;99.90;;;;;;5092514;28;20643;-66
2022/03/04 09:01:54;;;;;;;20.77;16.40;;;14.70;99.90;;;;;;5092644;28;20175;-67
2022/03/04 09:04:20;;;;;;;22.30;15.67;;;14.40;99.90;;;;;;5092406;28;20602;-65
2022/03/04 09:06:47;;;;;;;18.80;15.20;;;13.20;99.90;;;;;;5092274;28;20215;-66
2022/03/04 09:09:13;;;;;;;19.70;15.53;;;13.60;99.90;;;;;;5092243;28;20235;-66
2022/03/04 09:11:38;;;;;;;18.97;15.90;;;13.70;99.90;;;;;;5093226;28;20184;-65
2022/03/04 09:14:04;;;;;;;18.50;15.97;;;13.70;99.90;;;;;;5092770;28;20203;-66
2022/03/04 09:16:30;;;;;;;17.77;15.77;;;15.20;99.90;;;;;;5093135;28;20207;-66
2022/03/04 09:18:56;;;;;;;23.43;15.67;;;15.40;99.90;;;;;;5093230;28;20247;-66
2022/03/04 09:21:22;;;;;;;24.50;16.10;;;15.70;99.90;;;;;;5092769;28;20210;-67
2022/03/04 09:23:47;;;;;;;20.73;15.93;;;17.40;99.90;;;;;;5092960;28;20630;-66
2022/03/04 09:26:13;;;;;;;21.27;16.33;;;18.20;99.90;;;;;;5092454;28;20483;-65
2022/03/04 09:28:39;;;;;;;17.95;15.70;;;17.80;99.90;;;;;;5091795;28;20543;-66
2022/03/04 09:31:04;;;;;;;17.90;16.00;;;17.30;99.90;;;;;;5075081;28;20168;-65
2022/03/04 09:33:30;;;;;;;17.60;15.10;;;17.20;99.90;;;;;;5090682;28;20521;-67
2022/03/04 09:35:56;;;;;;;18.50;14.77;;;17.90;99.90;;;;;;5091687;28;20230;-66
2022/03/04 09:38:21;;;;;;;16.60;14.27;;;17.30;99.90;;;;;;5092353;28;20166;-68
2022/03/04 09:40:50;;;;;;;19.10;14.48;;;18.00;99.90;;;;;;5092674;28;20188;-66
2022/03/04 09:43:18;;;;;;;15.70;14.15;;;18.10;99.90;;;;;;5091600;28;20667;-67
2022/03/04 09:45:49;;;;;;;15.88;13.82;;;18.30;99.90;;;;;;5091277;28;20179;-67
2022/03/04 09:48:15;;;;;;;17.48;14.35;;;18.70;99.90;;;;;;5091794;28;20172;-67
2022/03/04 09:50:43;;;;;;;18.35;15.75;;;19.30;99.90;;;;;;5092137;28;20168;-67
2022/03/04 09:53:11;;;;;;;18.65;14.77;;;19.40;99.90;;;;;;5091928;28;20266;-69
2022/03/04 09:55:38;;;;;;;17.52;14.65;;;19.20;99.90;;;;;;5073829;28;20207;-68
2022/03/04 09:58:12;;;;;;;21.90;14.80;;;19.20;99.90;;;;;;5091204;28;20163;-67
2022/03/04 10:00:43;;;;;;;19.10;15.32;;;19.30;99.90;;;;;;5091113;28;20233;-67
2022/03/04 10:03:30;;;;;;;20.08;15.80;;;19.50;99.90;;;;;;5091852;28;20203;-67
2022/03/04 10:05:59;;;;;;;18.42;14.65;;;20.50;99.90;;;;;;5091532;28;20581;-67
2022/03/04 10:08:26;;;;;;;18.13;14.50;;;19.80;99.90;;;;;;5091804;28;20190;-67
2022/03/04 10:10:56;;;;;;;16.67;14.98;;;19.70;99.90;;;;;;5092002;28;20254;-68
2022/03/04 10:13:40;;;;;;;16.77;14.32;;;19.50;99.90;;;;;;5091304;28;20163;-66
2022/03/04 10:16:06;;;;;;;16.05;14.45;;;19.20;99.90;;;;;;5091395;28;20216;-66
2022/03/04 10:18:31;;;;;;;16.00;14.30;;;19.10;99.90;;;;;;5092297;28;20522;-66
2022/03/04 10:20:57;;;;;;;17.80;14.63;;;19.60;99.90;;;;;;5091803;28;20618;-66
2022/03/04 10:23:25;;;;;;;17.15;14.85;;;20.50;99.90;;;;;;5092404;28;20179;-68
2022/03/04 10:25:56;;;;;;;17.02;14.85;;;21.10;99.90;;;;;;5092486;28;20172;-67
2022/03/04 10:28:23;;;;;;;19.88;14.57;;;21.10;99.90;;;;;;5091903;28;20160;-67
2022/03/04 10:30:51;;;;;;;19.92;16.90;;;20.60;99.90;;;;;;5092559;28;20203;-67
2022/03/04 10:33:19;;;;;;;18.60;16.40;;;21.30;99.90;;;;;;5092108;28;20184;-68
2022/03/04 10:35:46;;;;;;;21.55;15.85;;;21.70;99.90;;;;;;5092717;28;20211;-68
2022/03/04 10:38:24;;;;;;;17.02;15.23;;;21.20;99.90;;;;;;5090820;28;20187;-66
2022/03/04 10:40:50;;;;;;;18.05;16.13;;;21.00;99.90;;;;;;5094999;28;20198;-67
2022/03/04 10:43:23;;;;;;;17.70;15.90;;;19.40;99.90;;;;;;5095707;28;20196;-66
2022/03/04 10:45:59;;;;;;;21.42;15.95;;;19.80;99.90;;;;;;5096139;28;20175;-67
2022/03/04 10:48:25;;;;;;;17.83;15.07;;;20.70;99.90;;;;;;5096190;28;20236;-67
2022/03/04 10:50:54;;;;;;;20.48;15.85;;;19.40;99.90;;;;;;5095376;28;20172;-66
2022/03/04 10:53:24;;;;;;;19.08;15.80;;;19.10;99.90;;;;;;5095531;28;20176;-67
2022/03/04 10:55:55;;;;;;;18.65;16.05;;;18.70;99.90;;;;;;5095066;28;20663;-66
2022/03/04 10:58:25;;;;;;;21.02;16.02;;;18.90;99.90;;;;;;5095641;28;20229;-66
2022/03/04 11:00:53;;;;;;;17.92;16.02;;;19.30;99.90;;;;;;5095634;28;20195;-66
2022/03/04 11:03:20;;;;;;;18.63;16.23;;;20.30;99.90;;;;;;5094364;28;20172;-66
2022/03/04 11:05:47;;;;;;;19.50;16.25;;;20.00;99.90;;;;;;5093271;28;20192;-66
2022/03/04 11:08:13;;;;;;;19.17;16.55;;;20.50;99.90;;;;;;5095200;28;20176;-67
2022/03/04 11:10:40;;;;;;;18.42;16.45;;;21.20;99.90;;;;;;5094950;28;20172;-68
2022/03/04 11:13:08;;;;;;;19.15;16.95;;;21.30;99.90;;;;;;5095448;28;20180;-68
2022/03/04 11:15:34;;;;;;;21.80;16.05;;;21.70;99.90;;;;;;5095252;28;20219;-68
2022/03/04 11:18:08;;;;;;;19.90;16.67;;;21.60;99.90;;;;;;5093904;28;20175;-67
2022/03/04 11:20:35;;;;;;;18.50;16.05;;;21.60;99.90;;;;;;5094860;28;20175;-66
2022/03/04 11:23:01;;;;;;;18.42;16.50;;;20.90;99.90;;;;;;5095088;28;20190;-66
2022/03/04 11:25:43;;;;;;;18.55;16.67;;;21.30;99.90;;;;;;5094836;28;20172;-68
2022/03/04 11:28:14;;;;;;;19.67;16.80;;;20.90;99.90;;;;;;5076628;28;20195;-68
2022/03/04 11:30:46;;;;;;;18.17;15.88;;;20.20;99.90;;;;;;5092571;28;20319;-68
2022/03/04 11:33:22;;;;;;;19.77;17.08;;;21.20;99.90;;;;;;5093722;28;20242;-67
2022/03/04 11:36:11;;;;;;;20.60;17.35;;;20.90;99.90;;;;;;5093781;28;20207;-68
2022/03/04 11:38:48;;;;;;;20.15;17.42;;;20.70;99.90;;;;;;5076465;28;20679;-68
2022/03/04 11:41:26;;;;;;;21.95;17.77;;;19.20;99.90;;;;;;5093921;28;20205;-68
2022/03/04 11:44:19;;;;;;;23.10;17.05;;;19.30;99.90;;;;;;5093836;28;20262;-68
2022/03/04 11:46:49;;;;;;;20.33;16.92;;;17.40;99.90;;;;;;5094265;28;20168;-67
2022/03/04 11:49:38;;;;;;;22.30;18.10;;;18.60;99.90;;;;;;5093656;28;20203;-67
2022/03/04 11:52:21;;;;;;;23.60;17.90;;;19.00;99.90;;;;;;5092885;28;20194;-67
2022/03/04 11:54:49;;;;;;;24.88;17.63;;;18.80;99.90;;;;;;5093540;28;20195;-67
2022/03/04 11:57:26;;;;;;;21.90;18.45;;;19.50;99.90;;;;;;5094253;28;20168;-67
2022/03/04 12:00:09;;;;;;;20.83;17.90;;;18.80;99.90;;;;;;5094596;28;20183;-67
2022/03/04 12:02:42;;;;;;;23.20;18.35;;;18.50;99.90;;;;;;5094078;28;20570;-66
2022/03/04 12:05:21;;;;;;;19.38;17.02;;;19.20;99.90;;;;;;5094412;28;20196;-67
2022/03/04 12:08:07;;;;;;;24.00;17.45;;;18.40;99.90;;;;;;5093960;28;20384;-67
2022/03/04 12:10:39;;;;;;;22.08;19.02;;;17.70;99.90;;;;;;5093796;28;20172;-67
2022/03/04 12:13:18;;;;;;;22.33;18.60;;;16.30;99.90;;;;;;5094525;28;20172;-67
2022/03/04 12:15:57;;;;;;;24.63;17.90;;;15.90;99.90;;;;;;5094135;28;20203;-67
2022/03/04 12:18:27;;;;;;;21.90;17.77;;;15.50;99.90;;;;;;5094144;28;20175;-66
2022/03/04 12:20:56;;;;;;;20.33;16.97;;;15.50;99.90;;;;;;5094357;28;20266;-67
2022/03/04 12:23:29;;;;;;;19.77;17.17;;;15.80;99.90;;;;;;5093793;28;20186;-68
2022/03/04 12:25:54;;;;;;;22.67;17.63;;;16.30;99.90;;;;;;5093904;28;20171;-68
2022/03/04 12:28:32;;;;;;;23.23;17.10;;;16.80;99.90;;;;;;5094183;28;20168;-67
2022/03/04 12:31:01;;;;;;;24.73;17.27;;;17.20;99.90;;;;;;5093828;28;20261;-68
2022/03/04 12:33:30;;;;;;;20.70;17.27;;;17.40;99.90;;;;;;5093410;28;20164;-67